Coral Topaz — 3ELB7 — position and weather

sailwx.info

Track history (hours):
 
Tides and Currents Weather Stations Pressure Air Temp Water Temp Dewpoint Dewpoint Depression Visibility Wind Speed Wind Dir Waves Ship Positions

Coral Topaz

Last reported at 2016-Jun-19 22:10 UTC. Time now 2016-Jun-27 13:15 UTC.
Position S 32°22' E 152°44'.

Length 225 m; draft 13 m.

Type: Ship. MMSI: 372904000.

Date/timePositionNaut miles runAvg speedWind from/ knotsBaromVisibWave heightAir tempDewpointWater temp
2016-Jun-19 22:10S 32°22' E 152°44'2012.6
2016-Jun-19 20:33S 32°38' E 152°29'1212.4
2016-Jun-19 19:34S 32°46' E 152°18'1212.0
2016-Jun-19 18:33S 32°53' E 152°07'1111.1
2016-Jun-19 17:33S 32°56' E 151°54'6 6.3
2016-Jun-19 16:33S 32°55' E 151°47'2 0.5
2016-Jun-19 11:24S 32°53' E 151°45'0 0.0
2016-Jun-19 10:30S 32°53' E 151°45'0 0.0
2016-Jun-19 06:30S 32°53' E 151°45'0 0.0
2016-Jun-19 05:30S 32°53' E 151°45'0 0.0
2016-Jun-19 04:30S 32°53' E 151°45'0 0.0
2016-Jun-19 03:33S 32°53' E 151°45'0 0.0
2016-Jun-19 02:33S 32°53' E 151°45'0 0.0
2016-Jun-19 01:24S 32°53' E 151°45'0 0.0
2016-Jun-19 00:18S 32°53' E 151°45'0 0.0
2016-Jun-18 23:30S 32°53' E 151°45'0 0.0
2016-Jun-18 22:33S 32°53' E 151°45'3 2.8
2016-Jun-18 21:33S 32°55' E 151°48'7 6.5
2016-Jun-18 20:33S 33°01' E 151°52'5 4.9
2016-Jun-18 19:31S 33°04' E 151°47'2 0.3
2016-Jun-18 10:21S 33°05' E 151°45'0 0.0
2016-Jun-18 09:24S 33°05' E 151°45'0 0.0
2016-Jun-18 07:15S 33°05' E 151°45'0 0.0
2016-Jun-18 06:33S 33°05' E 151°45'0 0.1
2016-Jun-18 05:33S 33°05' E 151°45'0 0.0
2016-Jun-18 04:30S 33°05' E 151°45'0 0.1
2016-Jun-18 03:33S 33°05' E 151°45'0 0.0
2016-Jun-18 02:33S 33°05' E 151°45'0 0.0
2016-Jun-18 01:33S 33°05' E 151°45'0 0.0
2016-Jun-17 23:33S 33°05' E 151°45'0 0.1
2016-Jun-17 22:33S 33°05' E 151°45'0 0.0
2016-Jun-17 21:30S 33°05' E 151°45'0 0.0
2016-Jun-17 20:33S 33°05' E 151°45'0 0.1
2016-Jun-17 19:33S 33°05' E 151°45'0 0.1
2016-Jun-17 18:33S 33°05' E 151°45'0 0.0
2016-Jun-17 17:27S 33°05' E 151°45'0 0.1
2016-Jun-17 16:30S 33°05' E 151°45'0 0.0
2016-Jun-17 15:24S 33°05' E 151°45'0 0.0
2016-Jun-17 14:21S 33°05' E 151°45'0 0.1
2016-Jun-17 13:27S 33°05' E 151°45'0 0.0
2016-Jun-17 10:33S 33°05' E 151°45'0 0.0
2016-Jun-17 09:24S 33°05' E 151°45'0 0.0
2016-Jun-17 08:33S 33°05' E 151°45'0 0.0
2016-Jun-17 06:27S 33°05' E 151°45'0 0.0
2016-Jun-17 05:33S 33°05' E 151°45'0 0.0
2016-Jun-17 04:30S 33°05' E 151°45'0 0.0
2016-Jun-17 01:33S 33°05' E 151°45'0 0.1
2016-Jun-17 00:33S 33°05' E 151°45'3 3.0
2016-Jun-16 23:33S 33°06' E 151°48'1111.1
2016-Jun-16 22:34S 32°59' E 151°58'1211.7
2016-Jun-16 21:34S 32°54' E 152°11'1111.2
2016-Jun-16 20:34S 32°46' E 152°21'1313.3
2016-Jun-16 19:33S 32°37' E 152°33'1414.3
2016-Jun-16 18:34S 32°26' E 152°43'1615.6
2016-Jun-16 17:33S 32°11' E 152°49'1815.4
2016-Jun-16 16:24S 31°55' E 152°59'23915.7
2016-Jun-16 01:08S 28°01' E 153°53'915.1
2016-Jun-16 00:33S 27°52' E 153°53'4214.1
2016-Jun-15 21:33S 27°10' E 153°56'  
Track history (hours):
 
Tides and Currents Weather Stations Pressure Air Temp Water Temp Dewpoint Dewpoint Depression Visibility Wind Speed Wind Dir Waves Ship Positions

Coral Topaz

Last reported at 2016-Jun-19 22:10 UTC. Time now 2016-Jun-27 13:15 UTC.
Position S 32°22' E 152°44'.

Length 225 m; draft 13 m.

Type: Ship. MMSI: 372904000.

Date/timePositionNaut miles runAvg speedWind from/ knotsBaromVisibWave heightAir tempDewpointWater temp
2016-Jun-19 22:10S 32°22' E 152°44'2012.6
2016-Jun-19 20:33S 32°38' E 152°29'1212.4
2016-Jun-19 19:34S 32°46' E 152°18'1212.0
2016-Jun-19 18:33S 32°53' E 152°07'1111.1
2016-Jun-19 17:33S 32°56' E 151°54'6 6.3
2016-Jun-19 16:33S 32°55' E 151°47'2 0.5
2016-Jun-19 11:24S 32°53' E 151°45'0 0.0
2016-Jun-19 10:30S 32°53' E 151°45'0 0.0
2016-Jun-19 06:30S 32°53' E 151°45'0 0.0
2016-Jun-19 05:30S 32°53' E 151°45'0 0.0
2016-Jun-19 04:30S 32°53' E 151°45'0 0.0
2016-Jun-19 03:33S 32°53' E 151°45'0 0.0
2016-Jun-19 02:33S 32°53' E 151°45'0 0.0
2016-Jun-19 01:24S 32°53' E 151°45'0 0.0
2016-Jun-19 00:18S 32°53' E 151°45'0 0.0
2016-Jun-18 23:30S 32°53' E 151°45'0 0.0
2016-Jun-18 22:33S 32°53' E 151°45'3 2.8
2016-Jun-18 21:33S 32°55' E 151°48'7 6.5
2016-Jun-18 20:33S 33°01' E 151°52'5 4.9
2016-Jun-18 19:31S 33°04' E 151°47'2 0.3
2016-Jun-18 10:21S 33°05' E 151°45'0 0.0
2016-Jun-18 09:24S 33°05' E 151°45'0 0.0
2016-Jun-18 07:15S 33°05' E 151°45'0 0.0
2016-Jun-18 06:33S 33°05' E 151°45'0 0.1
2016-Jun-18 05:33S 33°05' E 151°45'0 0.0
2016-Jun-18 04:30S 33°05' E 151°45'0 0.1
2016-Jun-18 03:33S 33°05' E 151°45'0 0.0
2016-Jun-18 02:33S 33°05' E 151°45'0 0.0
2016-Jun-18 01:33S 33°05' E 151°45'0 0.0
2016-Jun-17 23:33S 33°05' E 151°45'0 0.1
2016-Jun-17 22:33S 33°05' E 151°45'0 0.0
2016-Jun-17 21:30S 33°05' E 151°45'0 0.0
2016-Jun-17 20:33S 33°05' E 151°45'0 0.1
2016-Jun-17 19:33S 33°05' E 151°45'0 0.1
2016-Jun-17 18:33S 33°05' E 151°45'0 0.0
2016-Jun-17 17:27S 33°05' E 151°45'0 0.1
2016-Jun-17 16:30S 33°05' E 151°45'0 0.0
2016-Jun-17 15:24S 33°05' E 151°45'0 0.0
2016-Jun-17 14:21S 33°05' E 151°45'0 0.1
2016-Jun-17 13:27S 33°05' E 151°45'0 0.0
2016-Jun-17 10:33S 33°05' E 151°45'0 0.0
2016-Jun-17 09:24S 33°05' E 151°45'0 0.0
2016-Jun-17 08:33S 33°05' E 151°45'0 0.0
2016-Jun-17 06:27S 33°05' E 151°45'0 0.0
2016-Jun-17 05:33S 33°05' E 151°45'0 0.0
2016-Jun-17 04:30S 33°05' E 151°45'0 0.0
2016-Jun-17 01:33S 33°05' E 151°45'0 0.1
2016-Jun-17 00:33S 33°05' E 151°45'3 3.0
2016-Jun-16 23:33S 33°06' E 151°48'1111.1
2016-Jun-16 22:34S 32°59' E 151°58'1211.7
2016-Jun-16 21:34S 32°54' E 152°11'1111.2
2016-Jun-16 20:34S 32°46' E 152°21'1313.3
2016-Jun-16 19:33S 32°37' E 152°33'1414.3
2016-Jun-16 18:34S 32°26' E 152°43'1615.6
2016-Jun-16 17:33S 32°11' E 152°49'1815.4
2016-Jun-16 16:24S 31°55' E 152°59'23915.7
2016-Jun-16 01:08S 28°01' E 153°53'915.1
2016-Jun-16 00:33S 27°52' E 153°53'4214.1
2016-Jun-15 21:33S 27°10' E 153°56'  

Dump ship's entire track history